CheckWX is a tool to help pilots better visualize weather data.  It is not intended as a substitute for an official pre-flight weather briefing.

15:42:26 UTC

KRWL TAF
Rawlins Municipal / Harvey Field Airport
Rawlins, Wyoming, USA
KRWL 211503Z 2115/2212 05010KT P6SM OVC020 FM211800 05010KT P6SM OVC035 FM220100 01005KT P6SM OVC050

Nov-21@
15:00 UTC

Nov-21 @ 15:00 UTC

Nov-21@
18:00 UTC

Nov-21 @ 18:00 UTC

KRWL 211503Z 2115/2212 05010KT P6SM OVC020
Wind
  • 050° at 10 KTS
Cloud Levels
  • Overcast at 2,000' AGL

Nov-21@
18:00 UTC

Nov-21 @ 18:00 UTC

Nov-22@
01:00 UTC

Nov-22 @ 01:00 UTC

FM211800 05010KT P6SM OVC035

From

From Standard forecast or significant change

Wind
  • 050° at 10 KTS
Cloud Levels
  • Overcast at 3,500' AGL

Nov-22@
01:00 UTC

Nov-22 @ 01:00 UTC

Nov-22@
12:00 UTC

Nov-22 @ 12:00 UTC

FM220100 01005KT P6SM OVC050

From

From Standard forecast or significant change

Wind
  • 010° at 5 KTS
Cloud Levels
  • Overcast at 5,000' AGL